Time;durP1;ratioP1;P1;durP2;ratioP2;P2;SDS_P1;SDS_P2;PMS_P1;PMS_P2;Temp;Humidity;BMP_temperature;BMP_pressure;BME280_temperature;BME280_humidity;BME280_pressure;Samples;Min_cycle;Max_cycle;Signal;HPM_P1;HPM_P2
2023/10/29 00:02:07;;;;;;;;;;;12.20;72.90;;;11.15;66.75;96004.28;5061212;28;19932;-86
2023/10/29 00:04:36;;;;;;;;;;;12.10;73.20;;;11.13;67.36;96005.66;5044180;28;20312;-86
2023/10/29 00:07:05;;;;;;;;;;;12.10;73.40;;;11.14;67.44;96012.78;5074195;28;20411;-86
2023/10/29 00:09:33;;;;;;;;;;;12.10;73.50;;;11.12;66.81;96013.03;5080196;28;19924;-86
2023/10/29 00:12:01;;;;;;;;;;;12.10;73.30;;;11.12;66.59;96018.53;5082466;28;20402;-86
2023/10/29 00:14:29;;;;;;;;;;;12.10;73.00;;;11.11;66.31;96011.41;5064113;28;20304;-86
2023/10/29 00:16:58;;;;;;;;;;;12.10;72.70;;;11.12;66.50;96009.50;5063711;28;19924;-86
2023/10/29 00:19:26;;;;;;;;;;;12.10;72.80;;;11.11;66.79;96011.41;5063603;28;20384;-86
2023/10/29 00:21:54;;;;;;;;;;;12.10;73.00;;;11.10;66.73;96003.47;5060593;28;19925;-86
2023/10/29 00:24:23;;;;;;;;;;;12.10;73.00;;;11.10;66.89;96006.22;5077500;28;20419;-86
2023/10/29 00:26:51;;;;;;;;;;;12.10;72.80;;;11.10;66.60;96019.91;5027753;28;19936;-86
2023/10/29 00:29:19;;;;;;;;;;;12.10;73.00;;;11.08;66.84;96013.88;5077040;28;19924;-86
2023/10/29 00:31:47;;;;;;;;;;;12.10;73.10;;;11.09;66.53;96021.00;5043685;28;19931;-86
2023/10/29 00:34:16;;;;;;;;;;;12.10;73.70;;;11.07;66.98;96017.72;5060365;28;19924;-86
2023/10/29 00:36:44;;;;;;;;;;;12.10;73.10;;;11.05;66.80;96015.25;5073068;28;20278;-86
2023/10/29 00:39:12;;;;;;;;;;;12.10;72.70;;;11.04;66.17;96014.44;5043613;28;19932;-86
2023/10/29 00:41:43;;;;;;;;;;;12.10;72.50;;;11.04;66.30;96028.13;5061217;28;19932;-86
2023/10/29 00:44:11;;;;;;;;;;;12.10;73.30;;;11.04;66.46;96027.31;5059340;28;20377;-86
2023/10/29 00:46:41;;;;;;;;;;;12.10;72.80;;;11.03;66.70;96034.72;5059554;28;19925;-86
2023/10/29 00:49:10;;;;;;;;;;;12.00;73.00;;;11.03;67.22;96032.00;5043040;28;19924;-86
2023/10/29 00:51:39;;;;;;;;;;;12.10;73.60;;;11.03;67.22;96034.72;5047287;28;19931;-86
2023/10/29 00:54:07;;;;;;;;;;;12.00;74.20;;;11.02;66.94;96038.56;5063482;28;19924;-86
2023/10/29 00:56:34;;;;;;;;;;;12.00;73.20;;;11.01;66.52;96038.81;5080304;28;20304;-86
2023/10/29 00:59:02;;;;;;;;;;;12.00;72.80;;;11.02;67.41;96035.81;5063124;28;19955;-86
2023/10/29 01:01:30;;;;;;;;;;;12.00;73.60;;;11.02;67.51;96035.00;5096787;28;19935;-86
2023/10/29 01:03:59;;;;;;;;;;;12.00;73.60;;;11.01;67.22;96036.91;5096218;28;19932;-86
2023/10/29 01:06:27;;;;;;;;;;;12.00;73.50;;;11.00;66.77;96043.50;5063578;28;19924;-86
2023/10/29 01:08:57;;;;;;;;;;;12.00;72.90;;;11.00;66.99;96039.91;5063087;28;19947;-86
2023/10/29 01:11:25;;;;;;;;;;;12.00;73.00;;;10.98;67.19;96044.84;5080068;28;19928;-86
2023/10/29 01:13:53;;;;;;;;;;;12.00;73.30;;;10.99;67.00;96043.75;5080158;28;20569;-86
2023/10/29 01:16:21;;;;;;;;;;;12.00;73.00;;;10.98;66.85;96045.69;5096051;28;19928;-86
2023/10/29 01:18:49;;;;;;;;;;;12.00;72.90;;;10.96;67.29;96042.41;5079699;28;19931;-86
2023/10/29 01:21:17;;;;;;;;;;;12.00;73.20;;;10.95;66.80;96043.50;5080016;28;20411;-86
2023/10/29 01:23:45;;;;;;;;;;;12.00;73.20;;;10.94;66.80;96047.31;5079486;28;20312;-86
2023/10/29 01:26:15;;;;;;;;;;;12.00;72.90;;;10.95;66.37;96048.97;5079726;28;19924;-86
2023/10/29 01:28:43;;;;;;;;;;;12.00;72.70;;;10.93;66.74;96048.41;5063151;28;19924;-86
2023/10/29 01:31:11;;;;;;;;;;;12.00;73.00;;;10.93;67.07;96045.69;5079753;28;20300;-86
2023/10/29 01:33:39;;;;;;;;;;;11.90;73.00;;;10.92;67.02;96055.00;5079969;28;19924;-86
2023/10/29 01:36:08;;;;;;;;;;;11.90;73.30;;;10.92;67.03;96048.72;5063095;28;19932;-86
2023/10/29 01:38:36;;;;;;;;;;;11.90;73.20;;;10.92;67.43;96054.19;5059601;28;20416;-86
2023/10/29 01:41:04;;;;;;;;;;;11.90;73.70;;;10.90;67.40;96047.06;5059109;28;19925;-86
2023/10/29 01:43:34;;;;;;;;;;;11.90;73.90;;;10.89;67.59;96039.94;5059568;28;19924;-86
2023/10/29 01:46:03;;;;;;;;;;;11.90;73.70;;;10.89;67.75;96041.88;5043127;28;19924;-86
2023/10/29 01:48:31;;;;;;;;;;;11.90;73.70;;;10.89;67.17;96056.38;5042957;28;20415;-86
2023/10/29 01:51:02;;;;;;;;;;;11.90;73.50;;;10.90;66.49;96059.94;5059191;28;19924;-86
2023/10/29 01:53:31;;;;;;;;;;;11.90;72.80;;;10.87;66.70;96061.31;5059190;28;19931;-86
2023/10/29 01:55:59;;;;;;;;;;;11.90;72.70;;;10.87;66.93;96071.44;5059495;28;19924;-86
2023/10/29 01:58:27;;;;;;;;;;;11.90;73.00;;;10.87;67.35;96079.66;5077371;28;19924;-86
2023/10/29 02:00:57;;;;;;;;;;;11.90;73.60;;;10.87;66.99;96079.66;5045971;28;19924;-86
2023/10/29 02:03:25;;;;;;;;;;;11.90;73.10;;;10.86;67.05;96084.31;5062674;28;20400;-86
2023/10/29 02:05:54;;;;;;;;;;;11.90;73.40;;;10.86;66.93;96075.28;5062684;28;20577;-86
2023/10/29 02:08:22;;;;;;;;;;;11.90;73.40;;;10.86;67.69;96078.03;5046116;28;19935;-86
2023/10/29 02:10:50;;;;;;;;;;;11.90;73.80;;;10.87;68.12;96085.94;5061410;28;19931;-86
2023/10/29 02:13:18;;;;;;;;;;;11.90;74.30;;;10.85;68.13;96087.34;5062626;28;19924;-86
2023/10/29 02:15:47;;;;;;;;;;;11.90;74.40;;;10.85;67.98;96087.34;5046151;28;20389;-86
2023/10/29 02:18:17;;;;;;;;;;;11.90;74.60;;;10.85;68.12;96090.06;5062573;28;19925;-86
2023/10/29 02:20:45;;;;;;;;;;;11.90;74.60;;;10.85;67.77;96090.06;5045520;28;19924;-86
2023/10/29 02:23:15;;;;;;;;;;;11.90;74.30;;;10.84;66.98;96085.69;5045866;28;19931;-86
2023/10/29 02:25:43;;;;;;;;;;;11.90;73.00;;;10.83;66.14;96084.03;5062403;28;19929;-86
2023/10/29 02:28:12;;;;;;;;;;;11.90;72.40;;;10.81;65.85;96081.59;5079365;28;19924;-86
2023/10/29 02:30:40;;;;;;;;;;;11.80;72.10;;;10.78;66.87;96078.59;5078447;28;19924;-86
2023/10/29 02:33:08;;;;;;;;;;;11.80;72.80;;;10.79;67.05;96093.88;5061905;28;19947;-86
2023/10/29 02:35:36;;;;;;;;;;;11.80;73.00;;;10.77;67.34;96094.19;5045569;28;19925;-86
2023/10/29 02:38:04;;;;;;;;;;;11.80;73.50;;;10.78;67.46;96095.00;5062147;28;19924;-86
2023/10/29 02:40:33;;;;;;;;;;;11.80;73.80;;;10.77;67.51;96096.09;5045711;28;20317;-86
2023/10/29 02:43:03;;;;;;;;;;;11.80;73.60;;;10.77;67.58;96101.59;5062386;28;19924;-86
2023/10/29 02:45:32;;;;;;;;;;;11.80;73.80;;;10.77;67.67;96113.34;5061962;28;19924;-86
2023/10/29 02:48:00;;;;;;;;;;;11.80;74.00;;;10.75;67.93;96115.53;5062354;28;19932;-86
2023/10/29 02:50:28;;;;;;;;;;;11.80;74.10;;;10.76;67.01;96125.38;5044986;28;20399;-86
2023/10/29 02:52:56;;;;;;;;;;;11.80;73.30;;;10.76;67.47;96133.59;5078479;28;19924;-86
2023/10/29 02:55:24;;;;;;;;;;;11.80;74.10;;;10.76;68.07;96122.66;5061489;28;20332;-86
2023/10/29 02:57:54;;;;;;;;;;;11.80;74.30;;;10.75;67.55;96129.22;5078433;28;20388;-86
2023/10/29 03:00:23;;;;;;;;;;;11.80;74.00;;;10.73;67.39;96118.56;5061585;28;19928;-86
2023/10/29 03:02:50;;;;;;;;;;;11.80;73.60;;;10.74;67.99;96131.16;5045273;28;20465;-86
2023/10/29 03:05:18;;;;;;;;;;;11.80;74.20;;;10.73;67.49;96129.50;5061153;28;19947;-86
2023/10/29 03:07:46;;;;;;;;;;;11.80;73.80;;;10.73;67.58;96129.50;5062060;28;19924;-86
2023/10/29 03:10:14;;;;;;;;;;;11.80;74.00;;;10.73;67.39;96131.41;5078509;28;19931;-86
2023/10/29 03:12:42;;;;;;;;;;;11.80;73.80;;;10.71;66.85;96134.44;5045059;28;20434;-86
2023/10/29 03:15:12;;;;;;;;;;;11.80;73.20;;;10.71;67.41;96139.91;5061777;28;19932;-86
2023/10/29 03:17:40;;;;;;;;;;;11.80;73.50;;;10.70;67.78;96132.78;5061588;28;19925;-86
2023/10/29 03:20:09;;;;;;;;;;;11.70;74.00;;;10.70;67.45;96134.72;5044592;28;19924;-86
2023/10/29 03:22:37;;;;;;;;;;;11.70;73.70;;;10.69;67.92;96133.88;5061629;28;19925;-86
2023/10/29 03:25:05;;;;;;;;;;;11.70;74.00;;;10.70;67.80;96131.97;5077918;28;19931;-86
2023/10/29 03:27:33;;;;;;;;;;;11.70;74.30;;;10.68;67.95;96137.72;5077811;28;19925;-86
2023/10/29 03:30:02;;;;;;;;;;;11.70;74.30;;;10.69;67.88;96139.34;5077687;28;19935;-86
2023/10/29 03:32:33;;;;;;;;;;;11.70;74.40;;;10.69;67.75;96144.81;5061315;28;19925;-86
2023/10/29 03:35:02;;;;;;;;;;;11.70;74.30;;;10.68;67.77;96137.72;5062790;28;19924;-86
2023/10/29 03:37:30;;;;;;;;;;;11.70;74.10;;;10.66;67.60;96125.41;5028595;28;19924;-86
2023/10/29 03:39:58;;;;;;;;;;;11.70;73.70;;;10.68;67.86;96134.16;5061097;28;19925;-86
2023/10/29 03:42:26;;;;;;;;;;;11.70;74.30;;;10.66;67.54;96134.41;5061320;28;19928;-86
2023/10/29 03:44:54;;;;;;;;;;;11.70;74.20;;;10.65;67.92;96134.69;5061147;28;19932;-86
2023/10/29 03:47:22;;;;;;;;;;;11.70;74.20;;;10.65;66.96;96129.22;5061265;28;19932;-86
2023/10/29 03:49:52;;;;;;;;;;;11.70;73.40;;;10.63;66.98;96136.88;5060698;28;19925;-86
2023/10/29 03:52:20;;;;;;;;;;;11.70;73.20;;;10.64;66.80;96139.38;5061088;28;19939;-86
2023/10/29 03:54:48;;;;;;;;;;;11.70;73.00;;;10.61;67.32;96128.97;5061078;28;19931;-86
2023/10/29 03:57:16;;;;;;;;;;;11.70;73.50;;;10.62;67.66;96138.81;5044552;28;19924;-86
2023/10/29 03:59:44;;;;;;;;;;;11.70;73.80;;;10.60;67.67;96138.25;5077472;28;19924;-86
2023/10/29 04:02:12;;;;;;;;;;;11.70;74.20;;;10.60;68.15;96141.00;5044828;28;19924;-86
2023/10/29 04:04:42;;;;;;;;;;;11.70;74.30;;;10.61;67.71;96142.66;5044891;28;20311;-86
2023/10/29 04:07:13;;;;;;;;;;;11.60;74.00;;;10.58;67.92;96143.19;5060481;28;19925;-86
2023/10/29 04:09:45;;;;;;;;;;;11.60;74.30;;;10.61;68.29;96152.75;5046880;28;19932;-86
2023/10/29 04:12:13;;;;;;;;;;;11.60;74.40;;;10.59;67.76;96150.31;5064457;28;19928;-86
2023/10/29 04:14:42;;;;;;;;;;;11.60;74.10;;;10.59;68.02;96144.81;5064364;28;19924;-86
2023/10/29 04:17:11;;;;;;;;;;;11.60;74.10;;;10.58;68.23;96148.66;5080892;28;19947;-86
2023/10/29 04:19:39;;;;;;;;;;;11.60;74.20;;;10.57;67.67;96156.06;5080596;28;19991;-86
2023/10/29 04:22:08;;;;;;;;;;;11.60;74.10;;;10.57;67.90;96153.31;5063547;28;19990;-86
2023/10/29 04:24:37;;;;;;;;;;;11.60;74.20;;;10.57;67.97;96157.97;5080733;28;19939;-86
2023/10/29 04:27:06;;;;;;;;;;;11.60;74.40;;;10.55;67.04;96160.13;5080808;28;19924;-86
2023/10/29 04:29:34;;;;;;;;;;;11.60;73.50;;;10.56;67.64;96172.72;5063687;28;20315;-86
2023/10/29 04:32:02;;;;;;;;;;;11.60;74.00;;;10.54;67.63;96174.91;5063658;28;19946;-86
2023/10/29 04:34:30;;;;;;;;;;;11.60;74.00;;;10.54;67.80;96180.38;5047389;28;19925;-86
2023/10/29 04:36:58;;;;;;;;;;;11.60;74.10;;;10.55;67.71;96182.03;5081804;28;19924;-86
2023/10/29 04:39:26;;;;;;;;;;;11.60;74.00;;;10.53;67.59;96178.75;5080183;28;20293;-86
2023/10/29 04:41:56;;;;;;;;;;;11.60;73.80;;;10.52;67.59;96188.06;5060257;28;19936;-86
2023/10/29 04:44:26;;;;;;;;;;;11.60;73.80;;;10.52;67.65;96185.34;5027323;28;19935;-86
2023/10/29 04:46:54;;;;;;;;;;;11.60;73.90;;;10.51;67.29;96189.16;5059858;28;19935;-86
2023/10/29 04:49:22;;;;;;;;;;;11.60;73.20;;;10.50;67.70;96190.25;5076710;28;19925;-86
2023/10/29 04:51:50;;;;;;;;;;;11.50;74.10;;;10.49;67.16;96191.34;5043720;28;20308;-86
2023/10/29 04:54:20;;;;;;;;;;;11.50;73.30;;;10.48;67.90;96192.44;5060451;28;19925;-86
2023/10/29 04:56:48;;;;;;;;;;;11.50;73.80;;;10.48;68.03;96192.44;5043535;28;19925;-86
2023/10/29 04:59:17;;;;;;;;;;;11.50;74.10;;;10.48;67.74;96203.38;5059585;28;19932;-86
2023/10/29 05:01:45;;;;;;;;;;;11.50;74.10;;;10.48;67.87;96206.13;5027207;28;19928;-86
2023/10/29 05:04:13;;;;;;;;;;;11.50;74.10;;;10.47;67.98;96197.06;5059921;28;19932;-86
2023/10/29 05:06:42;;;;;;;;;;;11.50;74.10;;;10.49;67.42;96205.84;5061484;28;19925;-86
2023/10/29 05:09:10;;;;;;;;;;;11.50;73.80;;;10.47;67.48;96210.75;5043134;28;20002;-86
2023/10/29 05:11:38;;;;;;;;;;;11.50;73.70;;;10.49;67.23;96211.31;5060173;28;20313;-86
2023/10/29 05:14:06;;;;;;;;;;;11.50;73.40;;;10.50;67.26;96223.09;5043793;28;19933;-86
2023/10/29 05:16:36;;;;;;;;;;;11.50;73.50;;;10.50;67.34;96223.91;5060018;28;20419;-86
2023/10/29 05:19:04;;;;;;;;;;;11.50;73.60;;;10.51;67.43;96224.75;5059640;28;19932;-86
2023/10/29 05:21:33;;;;;;;;;;;11.50;73.80;;;10.50;67.36;96229.38;5060106;28;19944;-86
2023/10/29 05:24:02;;;;;;;;;;;11.60;73.70;;;10.52;66.76;96226.41;5043386;28;20419;-86
2023/10/29 05:26:30;;;;;;;;;;;11.60;73.00;;;10.54;66.39;96229.66;5066890;28;19924;-86
2023/10/29 05:28:58;;;;;;;;;;;11.60;72.40;;;10.54;67.20;96241.44;5062904;28;19924;-86
2023/10/29 05:31:26;;;;;;;;;;;11.60;73.20;;;10.56;66.36;96241.16;5080016;28;19931;-86
2023/10/29 05:33:56;;;;;;;;;;;11.60;72.50;;;10.56;66.27;96238.44;5065967;28;19951;-86
2023/10/29 05:36:24;;;;;;;;;;;11.60;72.20;;;10.58;66.40;96250.78;5066981;28;19924;-86
2023/10/29 05:38:52;;;;;;;;;;;11.60;72.60;;;10.59;65.41;96259.81;5099585;28;19924;-86
2023/10/29 05:41:20;;;;;;;;;;;11.60;71.70;;;10.59;65.10;96255.13;5083335;28;19924;-86
2023/10/29 08:58:11;;;;;;;;;;;;;;;;;;;;;
2023/10/29 09:00:58;;;;;;;;;;;;;;;;;;;;;
2023/10/29 09:03:56;;;;;;;;;;;13.50;70.20;;;12.66;64.00;96372.22;6015760;23;19921;-90
2023/10/29 09:06:50;;;;;;;;;;;13.50;70.30;;;12.67;63.84;96368.38;5997952;23;19922;-90
2023/10/29 09:09:33;;;;;;;;;;;13.60;70.20;;;12.68;63.82;96367.28;5975916;23;19929;-90
2023/10/29 11:58:27;;;;;;;;;;;;;;;;;;;;;
2023/10/29 12:01:13;;;;;;;;;;;13.40;71.50;;;12.48;65.29;96256.38;6115258;23;19944;-91
2023/10/29 12:04:11;;;;;;;;;;;13.40;71.40;;;12.50;65.45;96259.69;6113591;23;19921;-90
2023/10/29 12:06:45;;;;;;;;;;;13.40;71.40;;;12.46;65.29;96261.34;6136316;23;20248;-89
2023/10/29 12:09:18;;;;;;;;;;;13.40;71.50;;;12.46;65.44;96255.84;6136910;23;20248;-90
2023/10/29 12:12:18;;;;;;;;;;;13.40;71.50;;;12.43;65.41;96259.97;6113308;23;20362;-90
2023/10/29 12:15:07;;;;;;;;;;;13.40;71.60;;;12.45;65.46;96254.22;6136856;23;19921;-90
2023/10/29 12:17:42;;;;;;;;;;;13.40;71.60;;;12.41;65.41;96242.16;6112224;23;19921;-90
2023/10/29 12:20:25;;;;;;;;;;;13.40;71.70;;;12.40;65.75;96246.00;6113640;23;20348;-90
2023/10/29 12:23:02;;;;;;;;;;;13.40;71.70;;;12.39;65.45;96245.16;6113304;23;20233;-90
2023/10/29 12:25:35;;;;;;;;;;;13.40;71.80;;;12.38;65.70;96238.06;6112982;23;19920;-89
2023/10/29 12:28:08;;;;;;;;;;;13.40;71.90;;;12.38;65.49;96242.72;6136822;23;19920;-90
2023/10/29 12:30:46;;;;;;;;;;;13.30;72.00;;;12.37;65.70;96241.06;6136374;23;20255;-90
2023/10/29 12:33:25;;;;;;;;;;;13.30;71.90;;;12.38;65.60;96242.72;6113127;23;19920;-90
2023/10/29 12:35:58;;;;;;;;;;;13.30;72.00;;;12.37;65.51;96249.31;6136248;23;19920;-89
2023/10/29 12:38:27;;;;;;;;;;;13.30;71.90;;;12.37;65.65;96246.56;6113153;23;20342;-90
2023/10/29 12:41:06;;;;;;;;;;;13.30;71.90;;;12.37;65.59;96257.53;6136510;23;19921;-90
2023/10/29 12:43:40;;;;;;;;;;;13.30;72.00;;;12.36;65.72;96239.41;6112987;23;19920;-89
2023/10/29 12:46:22;;;;;;;;;;;13.30;72.00;;;12.35;65.61;96240.53;6090731;23;19944;-89
2023/10/29 12:48:59;;;;;;;;;;;13.30;72.00;;;12.33;65.69;96248.25;6112967;23;19921;-89
2023/10/29 12:51:29;;;;;;;;;;;13.30;72.00;;;12.32;65.55;96254.81;6137498;23;20259;-90
2023/10/29 12:54:12;;;;;;;;;;;13.30;72.10;;;12.30;65.62;96248.78;6136386;23;19924;-90
2023/10/29 12:57:10;;;;;;;;;;;13.30;72.10;;;12.30;65.68;96246.03;6112576;23;20359;-89
2023/10/29 12:59:42;;;;;;;;;;;13.20;72.10;;;12.28;65.86;96249.06;6136735;23;19928;-90
2023/10/29 13:02:21;;;;;;;;;;;13.20;72.20;;;12.26;66.14;96254.84;6112712;23;19928;-89
2023/10/29 13:04:51;;;;;;;;;;;13.20;72.20;;;12.25;65.99;96244.97;6112912;23;19921;-90
2023/10/29 13:07:21;;;;;;;;;;;13.20;72.30;;;12.25;66.38;96250.44;6088776;23;19928;-90
2023/10/29 13:09:52;;;;;;;;;;;13.20;72.40;;;12.24;66.33;96251.53;6137305;23;19920;-90
2023/10/29 13:12:22;;;;;;;;;;;13.20;72.40;;;12.23;66.17;96249.91;6089085;23;20256;-92
2023/10/29 13:14:51;;;;;;;;;;;13.20;72.40;;;12.24;66.48;96258.97;6112896;23;19928;-90
2023/10/29 13:17:27;;;;;;;;;;;13.20;72.50;;;12.22;66.50;96252.94;6112569;23;20255;-89
2023/10/29 13:19:57;;;;;;;;;;;13.20;72.50;;;12.20;66.03;96241.41;6136571;23;19921;-89
2023/10/29 13:22:26;;;;;;;;;;;13.20;72.60;;;12.20;66.44;96244.97;6089406;23;19929;-92
2023/10/29 13:24:58;;;;;;;;;;;13.20;72.60;;;12.20;66.45;96246.91;6112877;23;20344;-92
2023/10/29 13:27:28;;;;;;;;;;;13.10;72.70;;;12.17;66.28;96237.31;6137715;23;19920;-89
2023/10/29 13:29:58;;;;;;;;;;;13.10;72.80;;;12.18;66.52;96238.97;6088327;23;19928;-92
2023/10/29 13:32:29;;;;;;;;;;;13.10;72.80;;;12.17;66.67;96239.22;6112776;23;19928;-90
2023/10/29 13:34:59;;;;;;;;;;;13.10;72.90;;;12.17;66.25;96251.03;6137161;23;19932;-92
2023/10/29 13:37:30;;;;;;;;;;;13.10;72.90;;;12.16;66.49;96241.16;6136352;23;19925;-90
2023/10/29 13:39:59;;;;;;;;;;;13.10;72.90;;;12.16;66.55;96232.09;6089142;23;19928;-90
2023/10/29 13:42:28;;;;;;;;;;;13.10;73.00;;;12.14;66.33;96229.63;6113102;23;19920;-92
2023/10/29 13:45:00;;;;;;;;;;;13.10;73.00;;;12.16;66.60;96229.34;6112607;23;19932;-90
2023/10/29 13:47:31;;;;;;;;;;;13.10;73.00;;;12.15;66.57;96230.44;6112205;23;19924;-89
2023/10/29 13:50:00;;;;;;;;;;;13.10;73.00;;;12.16;66.65;96232.94;6112497;23;19920;-90
2023/10/29 13:52:29;;;;;;;;;;;13.10;73.10;;;12.14;66.52;96240.59;6112425;23;20263;-89
2023/10/29 13:54:58;;;;;;;;;;;13.10;73.00;;;12.15;66.70;96233.19;6113004;23;19921;-90
2023/10/29 13:57:27;;;;;;;;;;;13.10;73.00;;;12.14;66.72;96235.13;6112112;23;20336;-90
2023/10/29 13:59:56;;;;;;;;;;;13.10;73.10;;;12.12;66.75;96227.19;6112929;23;19928;-90
2023/10/29 14:02:25;;;;;;;;;;;13.10;73.10;;;12.11;66.73;96221.94;6137152;23;19920;-89
2023/10/29 14:04:56;;;;;;;;;;;13.10;73.10;;;12.10;66.83;96232.13;6112534;23;19921;-90
2023/10/29 14:07:26;;;;;;;;;;;13.10;73.10;;;12.11;66.94;96230.19;6112382;23;19928;-89
2023/10/29 14:09:56;;;;;;;;;;;13.10;73.20;;;12.09;66.65;96230.47;6136843;23;20256;-90
2023/10/29 14:12:28;;;;;;;;;;;13.10;73.20;;;12.09;66.74;96224.16;6113059;23;19927;-92
2023/10/29 14:15:01;;;;;;;;;;;13.10;73.30;;;12.09;66.71;96232.38;6138287;23;19932;-92
2023/10/29 14:17:30;;;;;;;;;;;13.00;73.20;;;12.08;66.65;96228.00;6112287;23;19928;-92
2023/10/29 14:20:03;;;;;;;;;;;13.00;73.20;;;12.08;66.79;96228.00;6112452;23;19921;-90
2023/10/29 14:22:32;;;;;;;;;;;13.00;73.20;;;12.06;66.89;96231.03;6112548;23;19920;-89
2023/10/29 14:25:03;;;;;;;;;;;13.00;73.40;;;12.06;66.99;96213.75;6136137;23;19920;-89
2023/10/29 14:27:32;;;;;;;;;;;13.00;73.40;;;12.05;66.84;96214.84;6088605;23;19927;-90
2023/10/29 14:30:01;;;;;;;;;;;13.00;73.40;;;12.05;67.13;96217.59;6088647;23;19921;-90
2023/10/29 14:32:31;;;;;;;;;;;13.00;73.50;;;12.05;66.93;96223.09;6112423;23;19946;-89
2023/10/29 14:35:01;;;;;;;;;;;13.00;73.50;;;12.04;67.08;96221.44;6135959;23;19925;-89
2023/10/29 14:37:30;;;;;;;;;;;13.00;73.60;;;12.04;67.30;96229.69;6135579;23;19947;-89
2023/10/29 14:39:58;;;;;;;;;;;13.00;73.60;;;12.03;67.50;96228.03;6112311;23;20365;-89
2023/10/29 14:42:28;;;;;;;;;;;13.00;74.50;;;12.01;67.38;96233.78;6112406;23;19928;-89
2023/10/29 14:44:57;;;;;;;;;;;12.90;73.70;;;12.02;67.28;96231.88;6135930;23;19920;-90
2023/10/29 14:47:26;;;;;;;;;;;13.00;73.70;;;12.01;67.16;96228.28;6111845;23;20240;-89
2023/10/29 14:49:55;;;;;;;;;;;13.00;73.70;;;12.00;67.34;96231.31;6135883;23;19920;-89
2023/10/29 14:52:26;;;;;;;;;;;12.90;73.80;;;12.01;67.47;96231.03;6112271;23;19927;-89
2023/10/29 14:54:55;;;;;;;;;;;12.90;73.80;;;12.00;67.46;96225.84;6112310;23;19921;-89
2023/10/29 14:57:24;;;;;;;;;;;12.90;73.90;;;11.98;67.20;96223.38;6111954;23;19927;-89
2023/10/29 14:59:53;;;;;;;;;;;12.90;73.90;;;11.99;67.57;96232.41;6111831;23;19920;-89
2023/10/29 15:02:21;;;;;;;;;;;12.90;73.90;;;11.97;67.37;96227.19;6135966;23;20354;-89
2023/10/29 15:04:51;;;;;;;;;;;12.90;73.90;;;11.97;67.38;96221.72;6112345;23;19924;-91
2023/10/29 15:07:20;;;;;;;;;;;12.90;73.90;;;11.96;67.14;96231.84;6137416;23;20348;-92
2023/10/29 15:09:52;;;;;;;;;;;12.90;73.90;;;11.96;67.49;96231.84;6137229;23;19947;-89
2023/10/29 15:12:21;;;;;;;;;;;12.90;73.90;;;11.95;67.53;96232.94;6113685;23;19921;-90
2023/10/29 15:14:50;;;;;;;;;;;12.90;74.00;;;11.96;67.65;96233.78;6137386;23;19924;-90
2023/10/29 15:17:24;;;;;;;;;;;12.90;74.00;;;11.94;67.57;96234.03;6137367;23;19920;-90
2023/10/29 15:19:53;;;;;;;;;;;12.90;74.10;;;11.94;67.52;96241.47;6113385;23;19928;-90
2023/10/29 15:22:25;;;;;;;;;;;12.90;74.20;;;11.93;67.30;96245.31;6137728;23;19920;-89
2023/10/29 15:24:58;;;;;;;;;;;12.90;74.20;;;11.92;67.79;96240.91;6113334;23;19921;-89
2023/10/29 15:27:27;;;;;;;;;;;12.90;74.20;;;11.93;67.88;96243.41;6112837;23;19921;-89
2023/10/29 15:29:56;;;;;;;;;;;12.90;74.30;;;11.92;67.90;96246.41;6089227;23;19928;-89
2023/10/29 15:32:25;;;;;;;;;;;12.90;74.30;;;11.92;67.64;96249.13;6137526;23;20354;-90
2023/10/29 15:34:54;;;;;;;;;;;12.90;74.40;;;11.91;67.86;96248.34;6112719;23;19920;-90
2023/10/29 15:37:24;;;;;;;;;;;12.90;74.50;;;11.90;67.96;96254.91;6137220;23;20492;-90
2023/10/29 15:39:54;;;;;;;;;;;12.80;74.40;;;11.89;67.80;96264.25;6137453;23;19921;-90
2023/10/29 15:42:25;;;;;;;;;;;12.80;74.30;;;11.90;67.86;96273.28;6136795;23;19920;-89
2023/10/29 15:44:55;;;;;;;;;;;12.80;74.40;;;11.89;67.88;96275.22;6113353;23;19928;-90
2023/10/29 15:47:25;;;;;;;;;;;12.80;75.40;;;11.89;67.82;96277.97;6135720;23;19921;-90
2023/10/29 15:49:54;;;;;;;;;;;12.80;74.40;;;11.88;67.88;96272.72;6089164;23;20237;-90
2023/10/29 15:52:23;;;;;;;;;;;12.80;74.50;;;11.89;67.86;96279.88;6113065;23;19921;-90
2023/10/29 15:54:52;;;;;;;;;;;12.80;74.20;;;11.88;67.52;96290.03;6089399;23;19927;-90
2023/10/29 15:57:23;;;;;;;;;;;12.80;74.00;;;11.86;67.31;96292.22;6113200;23;20324;-90
2023/10/29 15:59:53;;;;;;;;;;;12.80;73.90;;;11.85;67.70;96289.75;6113226;23;19928;-89
2023/10/29 16:02:21;;;;;;;;;;;12.80;74.20;;;11.84;67.56;96293.59;6113419;23;19977;-89
2023/10/29 16:04:49;;;;;;;;;;;12.80;73.90;;;11.85;67.57;96296.06;6112871;23;19928;-90
2023/10/29 16:07:20;;;;;;;;;;;12.80;74.20;;;11.84;67.65;96305.38;6112489;23;19927;-89
2023/10/29 16:09:49;;;;;;;;;;;12.80;74.20;;;11.83;67.82;96314.72;6113327;23;19921;-89
2023/10/29 16:12:25;;;;;;;;;;;12.80;74.20;;;11.82;67.61;96318.56;6136616;23;19921;-90
2023/10/29 16:14:57;;;;;;;;;;;12.80;74.40;;;11.81;67.74;96311.44;6088745;23;19928;-90
2023/10/29 16:17:26;;;;;;;;;;;12.80;74.50;;;11.79;67.80;96314.44;6112787;23;19931;-90
2023/10/29 16:19:54;;;;;;;;;;;12.80;74.40;;;11.81;67.85;96322.41;6112993;23;20347;-90
2023/10/29 16:22:23;;;;;;;;;;;12.70;74.30;;;11.79;67.85;96324.59;6113190;23;19920;-90
2023/10/29 16:24:56;;;;;;;;;;;12.70;74.20;;;11.77;67.34;96327.59;6137301;23;20362;-90
2023/10/29 16:27:25;;;;;;;;;;;12.70;74.10;;;11.77;67.49;96337.78;6107816;23;19927;-89
2023/10/29 16:29:56;;;;;;;;;;;12.70;74.00;;;11.76;67.61;96347.91;6112958;23;19927;-90
2023/10/29 16:32:25;;;;;;;;;;;12.70;74.00;;;11.75;67.60;96345.44;6113409;23;20354;-89
2023/10/29 16:34:54;;;;;;;;;;;12.70;74.10;;;11.74;67.43;96346.53;6113382;23;19928;-89
2023/10/29 16:37:25;;;;;;;;;;;12.70;74.00;;;11.73;67.30;96347.63;6088827;23;19920;-90
2023/10/29 16:39:54;;;;;;;;;;;12.70;74.00;;;11.73;67.63;96344.88;6136788;23;20264;-89
2023/10/29 16:42:23;;;;;;;;;;;12.70;74.00;;;11.70;67.50;96334.47;6113077;23;19921;-90
2023/10/29 16:44:52;;;;;;;;;;;12.70;74.10;;;11.70;67.32;96350.91;6136079;23;19924;-89
2023/10/29 16:47:23;;;;;;;;;;;12.70;74.00;;;11.70;67.56;96342.69;6088797;23;19927;-89
2023/10/29 16:49:51;;;;;;;;;;;12.70;74.20;;;11.70;67.67;96346.28;6137380;23;19930;-89
2023/10/29 16:52:22;;;;;;;;;;;12.70;74.10;;;11.68;67.32;96351.22;6112457;23;19943;-90
2023/10/29 16:54:51;;;;;;;;;;;12.60;73.70;;;11.66;67.51;96354.22;6089775;23;20348;-89
2023/10/29 16:57:20;;;;;;;;;;;12.60;73.70;;;11.65;67.18;96363.56;6136147;23;19927;-90
2023/10/29 16:59:51;;;;;;;;;;;12.60;73.80;;;11.64;67.48;96361.91;6112991;23;19947;-89
2023/10/29 17:02:22;;;;;;;;;;;12.60;73.90;;;11.64;67.58;96367.38;6112607;23;19920;-90
2023/10/29 17:04:51;;;;;;;;;;;12.60;74.00;;;11.63;67.38;96373.13;6136225;23;19921;-90
2023/10/29 17:07:21;;;;;;;;;;;12.60;74.10;;;11.62;67.60;96372.31;6112291;23;19945;-90
2023/10/29 17:09:54;;;;;;;;;;;12.60;74.20;;;11.63;67.67;96376.72;6112740;23;19928;-90
2023/10/29 17:12:28;;;;;;;;;;;12.60;74.10;;;11.62;67.49;96366.84;6136342;23;19920;-90
2023/10/29 17:15:03;;;;;;;;;;;12.60;74.10;;;11.61;67.34;96367.94;6112837;23;19921;-90
2023/10/29 17:17:35;;;;;;;;;;;12.60;74.10;;;11.61;67.80;96373.41;6135980;23;19921;-90
2023/10/29 17:20:05;;;;;;;;;;;12.60;74.10;;;11.61;67.96;96376.16;6137324;23;20366;-89
2023/10/29 17:22:34;;;;;;;;;;;12.50;74.20;;;11.60;67.72;96377.25;6112732;23;19946;-90
2023/10/29 17:25:03;;;;;;;;;;;12.60;74.30;;;11.61;67.80;96378.91;6088867;23;19920;-90
2023/10/29 17:27:32;;;;;;;;;;;12.50;74.20;;;11.59;67.70;96383.81;6088336;23;20252;-90
2023/10/29 17:30:04;;;;;;;;;;;12.50;74.20;;;11.59;67.82;96385.75;6137204;23;19927;-90
2023/10/29 17:32:34;;;;;;;;;;;12.50;74.30;;;11.60;67.78;96387.41;6137243;23;19921;-90
2023/10/29 17:35:06;;;;;;;;;;;12.50;74.30;;;11.58;67.89;96389.59;6135557;23;19921;-90
2023/10/29 17:37:35;;;;;;;;;;;12.50;74.40;;;11.58;67.89;96395.88;6112108;23;19921;-90